sensor_id;sensor_type;location;lat;lon;timestamp;P1;durP1;ratioP1;P2;durP2;ratioP2
66546;SDS011;53400;50.364;14.874;2024-03-17T00:01:33;5.28;;;2.28;;
66546;SDS011;53400;50.364;14.874;2024-03-17T00:03:59;9.38;;;3.00;;
66546;SDS011;53400;50.364;14.874;2024-03-17T00:06:26;7.68;;;2.67;;
66546;SDS011;53400;50.364;14.874;2024-03-17T00:08:52;7.82;;;2.90;;
66546;SDS011;53400;50.364;14.874;2024-03-17T00:11:17;7.97;;;2.70;;
66546;SDS011;53400;50.364;14.874;2024-03-17T00:13:43;5.40;;;2.60;;
66546;SDS011;53400;50.364;14.874;2024-03-17T00:16:09;7.07;;;3.20;;
66546;SDS011;53400;50.364;14.874;2024-03-17T00:18:35;7.15;;;3.08;;
66546;SDS011;53400;50.364;14.874;2024-03-17T00:21:02;6.63;;;2.90;;
66546;SDS011;53400;50.364;14.874;2024-03-17T00:23:29;8.60;;;3.50;;
66546;SDS011;53400;50.364;14.874;2024-03-17T00:25:54;7.10;;;3.47;;
66546;SDS011;53400;50.364;14.874;2024-03-17T00:28:20;8.63;;;2.65;;
66546;SDS011;53400;50.364;14.874;2024-03-17T00:30:46;6.13;;;2.97;;
66546;SDS011;53400;50.364;14.874;2024-03-17T00:33:12;7.47;;;3.13;;
66546;SDS011;53400;50.364;14.874;2024-03-17T00:35:39;6.38;;;2.72;;
66546;SDS011;53400;50.364;14.874;2024-03-17T00:38:05;7.80;;;2.83;;
66546;SDS011;53400;50.364;14.874;2024-03-17T00:40:37;7.15;;;3.10;;
66546;SDS011;53400;50.364;14.874;2024-03-17T00:43:03;7.22;;;2.78;;
66546;SDS011;53400;50.364;14.874;2024-03-17T00:45:29;8.68;;;3.10;;
66546;SDS011;53400;50.364;14.874;2024-03-17T00:47:55;6.13;;;2.80;;
66546;SDS011;53400;50.364;14.874;2024-03-17T00:50:20;7.47;;;3.15;;
66546;SDS011;53400;50.364;14.874;2024-03-17T00:52:46;6.82;;;2.90;;
66546;SDS011;53400;50.364;14.874;2024-03-17T00:55:12;7.97;;;3.33;;
66546;SDS011;53400;50.364;14.874;2024-03-17T00:57:41;8.40;;;3.10;;
66546;SDS011;53400;50.364;14.874;2024-03-17T01:00:07;8.38;;;3.30;;
66546;SDS011;53400;50.364;14.874;2024-03-17T01:02:43;7.60;;;3.40;;
66546;SDS011;53400;50.364;14.874;2024-03-17T01:05:08;8.02;;;3.90;;
66546;SDS011;53400;50.364;14.874;2024-03-17T01:07:34;10.20;;;3.30;;
66546;SDS011;53400;50.364;14.874;2024-03-17T01:10:00;7.95;;;4.32;;
66546;SDS011;53400;50.364;14.874;2024-03-17T01:12:26;11.43;;;3.75;;
66546;SDS011;53400;50.364;14.874;2024-03-17T01:14:54;9.65;;;3.47;;
66546;SDS011;53400;50.364;14.874;2024-03-17T01:17:19;8.90;;;4.15;;
66546;SDS011;53400;50.364;14.874;2024-03-17T01:19:45;8.50;;;3.95;;
66546;SDS011;53400;50.364;14.874;2024-03-17T01:22:11;7.78;;;3.88;;
66546;SDS011;53400;50.364;14.874;2024-03-17T01:24:37;8.18;;;3.92;;
66546;SDS011;53400;50.364;14.874;2024-03-17T01:27:06;10.05;;;3.97;;
66546;SDS011;53400;50.364;14.874;2024-03-17T01:29:32;10.55;;;4.00;;
66546;SDS011;53400;50.364;14.874;2024-03-17T01:31:59;8.80;;;3.97;;
66546;SDS011;53400;50.364;14.874;2024-03-17T01:34:25;9.13;;;3.60;;
66546;SDS011;53400;50.364;14.874;2024-03-17T01:36:51;10.30;;;3.47;;
66546;SDS011;53400;50.364;14.874;2024-03-17T01:39:17;11.63;;;4.00;;
66546;SDS011;53400;50.364;14.874;2024-03-17T01:41:43;8.88;;;3.75;;
66546;SDS011;53400;50.364;14.874;2024-03-17T01:44:11;10.43;;;3.80;;
66546;SDS011;53400;50.364;14.874;2024-03-17T01:46:47;7.85;;;3.63;;
66546;SDS011;53400;50.364;14.874;2024-03-17T01:49:14;9.45;;;3.83;;
66546;SDS011;53400;50.364;14.874;2024-03-17T01:51:41;10.05;;;4.00;;
66546;SDS011;53400;50.364;14.874;2024-03-17T01:54:07;7.82;;;3.70;;
66546;SDS011;53400;50.364;14.874;2024-03-17T01:56:34;9.45;;;4.22;;
66546;SDS011;53400;50.364;14.874;2024-03-17T01:59:00;7.65;;;3.60;;
66546;SDS011;53400;50.364;14.874;2024-03-17T02:01:26;9.50;;;4.00;;
66546;SDS011;53400;50.364;14.874;2024-03-17T02:03:52;10.77;;;3.90;;
66546;SDS011;53400;50.364;14.874;2024-03-17T02:06:19;11.27;;;4.28;;
66546;SDS011;53400;50.364;14.874;2024-03-17T02:08:46;11.30;;;4.43;;
66546;SDS011;53400;50.364;14.874;2024-03-17T02:11:14;11.45;;;4.50;;
66546;SDS011;53400;50.364;14.874;2024-03-17T02:13:50;14.60;;;4.82;;
66546;SDS011;53400;50.364;14.874;2024-03-17T02:16:16;11.25;;;4.57;;
66546;SDS011;53400;50.364;14.874;2024-03-17T02:18:42;12.15;;;4.47;;
66546;SDS011;53400;50.364;14.874;2024-03-17T02:21:08;11.43;;;4.47;;
66546;SDS011;53400;50.364;14.874;2024-03-17T02:23:36;10.98;;;4.22;;
66546;SDS011;53400;50.364;14.874;2024-03-17T02:26:01;9.30;;;4.20;;
66546;SDS011;53400;50.364;14.874;2024-03-17T02:30:53;10.82;;;4.78;;
66546;SDS011;53400;50.364;14.874;2024-03-17T02:33:19;11.25;;;4.43;;
66546;SDS011;53400;50.364;14.874;2024-03-17T02:35:47;12.48;;;4.80;;
66546;SDS011;53400;50.364;14.874;2024-03-17T02:38:15;13.00;;;4.85;;
66546;SDS011;53400;50.364;14.874;2024-03-17T02:41:02;10.85;;;4.72;;
66546;SDS011;53400;50.364;14.874;2024-03-17T02:43:29;9.93;;;4.95;;
66546;SDS011;53400;50.364;14.874;2024-03-17T02:45:55;10.02;;;4.72;;
66546;SDS011;53400;50.364;14.874;2024-03-17T02:48:21;11.63;;;4.63;;
66546;SDS011;53400;50.364;14.874;2024-03-17T02:50:47;10.27;;;5.50;;
66546;SDS011;53400;50.364;14.874;2024-03-17T02:53:13;10.10;;;4.75;;
66546;SDS011;53400;50.364;14.874;2024-03-17T02:55:39;13.02;;;4.63;;
66546;SDS011;53400;50.364;14.874;2024-03-17T02:58:07;10.82;;;4.65;;
66546;SDS011;53400;50.364;14.874;2024-03-17T03:00:33;10.05;;;4.30;;
66546;SDS011;53400;50.364;14.874;2024-03-17T03:02:59;10.02;;;5.28;;
66546;SDS011;53400;50.364;14.874;2024-03-17T03:05:24;9.90;;;4.88;;
66546;SDS011;53400;50.364;14.874;2024-03-17T03:07:50;13.20;;;5.82;;
66546;SDS011;53400;50.364;14.874;2024-03-17T03:10:17;9.68;;;4.47;;
66546;SDS011;53400;50.364;14.874;2024-03-17T03:12:43;11.27;;;4.82;;
66546;SDS011;53400;50.364;14.874;2024-03-17T03:15:10;10.63;;;4.93;;
66546;SDS011;53400;50.364;14.874;2024-03-17T03:17:36;10.68;;;4.53;;
66546;SDS011;53400;50.364;14.874;2024-03-17T03:20:01;10.20;;;4.45;;
66546;SDS011;53400;50.364;14.874;2024-03-17T03:22:29;9.80;;;4.75;;
66546;SDS011;53400;50.364;14.874;2024-03-17T03:24:54;10.55;;;5.05;;
66546;SDS011;53400;50.364;14.874;2024-03-17T03:27:20;9.50;;;4.70;;
66546;SDS011;53400;50.364;14.874;2024-03-17T03:29:46;11.27;;;4.60;;
66546;SDS011;53400;50.364;14.874;2024-03-17T03:32:13;10.98;;;4.40;;
66546;SDS011;53400;50.364;14.874;2024-03-17T03:34:39;11.57;;;4.88;;
66546;SDS011;53400;50.364;14.874;2024-03-17T03:37:05;10.63;;;4.25;;
66546;SDS011;53400;50.364;14.874;2024-03-17T03:39:33;9.02;;;4.72;;
66546;SDS011;53400;50.364;14.874;2024-03-17T03:41:59;10.13;;;4.80;;
66546;SDS011;53400;50.364;14.874;2024-03-17T03:44:24;10.35;;;4.50;;
66546;SDS011;53400;50.364;14.874;2024-03-17T03:46:50;10.50;;;4.68;;
66546;SDS011;53400;50.364;14.874;2024-03-17T03:49:19;11.73;;;4.85;;
66546;SDS011;53400;50.364;14.874;2024-03-17T03:51:45;9.35;;;3.95;;
66546;SDS011;53400;50.364;14.874;2024-03-17T03:54:10;11.07;;;4.50;;
66546;SDS011;53400;50.364;14.874;2024-03-17T03:56:37;8.82;;;4.22;;
66546;SDS011;53400;50.364;14.874;2024-03-17T03:59:03;10.77;;;4.50;;
66546;SDS011;53400;50.364;14.874;2024-03-17T04:01:28;11.00;;;5.05;;
66546;SDS011;53400;50.364;14.874;2024-03-17T04:03:54;8.75;;;3.63;;
66546;SDS011;53400;50.364;14.874;2024-03-17T04:06:21;11.05;;;4.45;;
66546;SDS011;53400;50.364;14.874;2024-03-17T04:08:48;12.20;;;4.53;;
66546;SDS011;53400;50.364;14.874;2024-03-17T04:11:14;10.10;;;4.38;;
66546;SDS011;53400;50.364;14.874;2024-03-17T04:13:39;10.65;;;4.07;;
66546;SDS011;53400;50.364;14.874;2024-03-17T04:16:06;8.20;;;3.78;;
66546;SDS011;53400;50.364;14.874;2024-03-17T04:18:33;9.40;;;4.20;;
66546;SDS011;53400;50.364;14.874;2024-03-17T04:21:01;8.85;;;4.50;;
66546;SDS011;53400;50.364;14.874;2024-03-17T04:23:30;8.90;;;4.10;;
66546;SDS011;53400;50.364;14.874;2024-03-17T04:26:00;8.27;;;4.50;;
66546;SDS011;53400;50.364;14.874;2024-03-17T04:28:28;11.30;;;4.20;;
66546;SDS011;53400;50.364;14.874;2024-03-17T04:31:01;9.63;;;3.97;;
66546;SDS011;53400;50.364;14.874;2024-03-17T04:33:29;7.78;;;3.83;;
66546;SDS011;53400;50.364;14.874;2024-03-17T04:35:55;11.77;;;4.57;;
66546;SDS011;53400;50.364;14.874;2024-03-17T04:38:21;10.13;;;4.28;;
66546;SDS011;53400;50.364;14.874;2024-03-17T04:40:48;9.77;;;4.32;;
66546;SDS011;53400;50.364;14.874;2024-03-17T04:43:14;9.20;;;4.63;;
66546;SDS011;53400;50.364;14.874;2024-03-17T04:45:40;10.50;;;4.45;;
66546;SDS011;53400;50.364;14.874;2024-03-17T04:48:06;8.75;;;4.13;;
66546;SDS011;53400;50.364;14.874;2024-03-17T04:50:33;10.60;;;4.45;;
66546;SDS011;53400;50.364;14.874;2024-03-17T04:52:59;10.32;;;4.55;;
66546;SDS011;53400;50.364;14.874;2024-03-17T04:55:25;11.43;;;4.35;;
66546;SDS011;53400;50.364;14.874;2024-03-17T04:57:52;9.05;;;4.25;;
66546;SDS011;53400;50.364;14.874;2024-03-17T05:00:18;9.50;;;4.10;;
66546;SDS011;53400;50.364;14.874;2024-03-17T05:02:44;8.68;;;4.18;;
66546;SDS011;53400;50.364;14.874;2024-03-17T05:05:11;11.98;;;4.95;;
66546;SDS011;53400;50.364;14.874;2024-03-17T05:07:37;8.90;;;4.00;;
66546;SDS011;53400;50.364;14.874;2024-03-17T05:10:03;8.68;;;4.05;;
66546;SDS011;53400;50.364;14.874;2024-03-17T05:12:30;9.38;;;4.45;;
66546;SDS011;53400;50.364;14.874;2024-03-17T05:14:58;9.48;;;4.38;;
66546;SDS011;53400;50.364;14.874;2024-03-17T05:17:23;9.52;;;3.95;;
66546;SDS011;53400;50.364;14.874;2024-03-17T05:19:49;11.50;;;4.55;;
66546;SDS011;53400;50.364;14.874;2024-03-17T05:22:15;8.20;;;4.60;;
66546;SDS011;53400;50.364;14.874;2024-03-17T05:24:41;13.10;;;4.70;;
66546;SDS011;53400;50.364;14.874;2024-03-17T05:27:07;9.43;;;4.40;;
66546;SDS011;53400;50.364;14.874;2024-03-17T05:29:33;8.93;;;4.15;;
66546;SDS011;53400;50.364;14.874;2024-03-17T05:32:04;10.75;;;4.10;;
66546;SDS011;53400;50.364;14.874;2024-03-17T05:34:30;9.38;;;3.90;;
66546;SDS011;53400;50.364;14.874;2024-03-17T05:36:56;10.52;;;4.13;;
66546;SDS011;53400;50.364;14.874;2024-03-17T05:39:22;8.70;;;3.70;;
66546;SDS011;53400;50.364;14.874;2024-03-17T05:41:47;11.18;;;3.72;;
66546;SDS011;53400;50.364;14.874;2024-03-17T05:44:14;9.30;;;3.83;;
66546;SDS011;53400;50.364;14.874;2024-03-17T05:46:40;10.98;;;3.95;;
66546;SDS011;53400;50.364;14.874;2024-03-17T05:49:07;9.00;;;3.80;;
66546;SDS011;53400;50.364;14.874;2024-03-17T05:51:32;10.13;;;4.15;;
66546;SDS011;53400;50.364;14.874;2024-03-17T05:53:58;7.25;;;3.53;;
66546;SDS011;53400;50.364;14.874;2024-03-17T05:56:25;9.60;;;4.05;;
66546;SDS011;53400;50.364;14.874;2024-03-17T05:58:51;9.85;;;3.88;;
66546;SDS011;53400;50.364;14.874;2024-03-17T06:01:16;9.60;;;3.50;;
66546;SDS011;53400;50.364;14.874;2024-03-17T06:03:42;9.98;;;4.10;;
66546;SDS011;53400;50.364;14.874;2024-03-17T06:06:09;10.23;;;4.32;;
66546;SDS011;53400;50.364;14.874;2024-03-17T06:08:35;11.68;;;4.93;;
66546;SDS011;53400;50.364;14.874;2024-03-17T06:11:01;9.73;;;4.50;;
66546;SDS011;53400;50.364;14.874;2024-03-17T06:13:27;9.68;;;4.60;;
66546;SDS011;53400;50.364;14.874;2024-03-17T06:15:53;10.43;;;4.78;;
66546;SDS011;53400;50.364;14.874;2024-03-17T06:18:19;14.00;;;6.00;;
66546;SDS011;53400;50.364;14.874;2024-03-17T06:20:45;11.85;;;5.80;;
66546;SDS011;53400;50.364;14.874;2024-03-17T06:23:14;11.40;;;5.15;;
66546;SDS011;53400;50.364;14.874;2024-03-17T06:25:43;12.95;;;5.57;;
66546;SDS011;53400;50.364;14.874;2024-03-17T06:28:11;12.88;;;5.70;;
66546;SDS011;53400;50.364;14.874;2024-03-17T06:30:40;12.27;;;5.20;;
66546;SDS011;53400;50.364;14.874;2024-03-17T06:33:06;12.63;;;5.72;;
66546;SDS011;53400;50.364;14.874;2024-03-17T06:35:35;12.27;;;5.30;;
66546;SDS011;53400;50.364;14.874;2024-03-17T06:38:01;9.88;;;5.00;;
66546;SDS011;53400;50.364;14.874;2024-03-17T06:40:28;11.85;;;5.38;;
66546;SDS011;53400;50.364;14.874;2024-03-17T06:42:56;10.50;;;4.88;;
66546;SDS011;53400;50.364;14.874;2024-03-17T06:45:22;10.40;;;5.32;;
66546;SDS011;53400;50.364;14.874;2024-03-17T06:47:48;11.15;;;5.60;;
66546;SDS011;53400;50.364;14.874;2024-03-17T06:50:13;11.70;;;5.80;;
66546;SDS011;53400;50.364;14.874;2024-03-17T06:52:40;11.13;;;6.03;;
66546;SDS011;53400;50.364;14.874;2024-03-17T06:55:06;12.02;;;5.00;;
66546;SDS011;53400;50.364;14.874;2024-03-17T06:57:34;10.32;;;5.95;;
66546;SDS011;53400;50.364;14.874;2024-03-17T07:02:25;11.90;;;5.55;;
66546;SDS011;53400;50.364;14.874;2024-03-17T07:04:51;12.80;;;5.68;;
66546;SDS011;53400;50.364;14.874;2024-03-17T07:07:17;10.52;;;5.60;;
66546;SDS011;53400;50.364;14.874;2024-03-17T07:09:42;10.82;;;4.95;;
66546;SDS011;53400;50.364;14.874;2024-03-17T07:12:09;11.80;;;5.90;;
66546;SDS011;53400;50.364;14.874;2024-03-17T07:14:39;12.98;;;5.57;;
66546;SDS011;53400;50.364;14.874;2024-03-17T07:17:05;11.48;;;5.32;;
66546;SDS011;53400;50.364;14.874;2024-03-17T07:19:30;10.57;;;5.40;;
66546;SDS011;53400;50.364;14.874;2024-03-17T07:21:58;13.07;;;5.60;;
66546;SDS011;53400;50.364;14.874;2024-03-17T07:24:26;10.65;;;5.47;;
66546;SDS011;53400;50.364;14.874;2024-03-17T07:26:53;10.05;;;4.75;;
66546;SDS011;53400;50.364;14.874;2024-03-17T07:29:18;13.48;;;5.38;;
66546;SDS011;53400;50.364;14.874;2024-03-17T07:31:46;10.80;;;5.45;;
66546;SDS011;53400;50.364;14.874;2024-03-17T07:34:11;11.40;;;5.80;;
66546;SDS011;53400;50.364;14.874;2024-03-17T07:36:38;11.25;;;5.43;;
66546;SDS011;53400;50.364;14.874;2024-03-17T07:39:04;11.35;;;5.32;;
66546;SDS011;53400;50.364;14.874;2024-03-17T07:41:32;12.40;;;5.60;;
66546;SDS011;53400;50.364;14.874;2024-03-17T07:43:58;12.32;;;5.45;;
66546;SDS011;53400;50.364;14.874;2024-03-17T07:46:24;12.05;;;5.68;;
66546;SDS011;53400;50.364;14.874;2024-03-17T07:48:52;11.27;;;5.30;;
66546;SDS011;53400;50.364;14.874;2024-03-17T07:51:18;10.35;;;5.55;;
66546;SDS011;53400;50.364;14.874;2024-03-17T07:53:44;9.85;;;4.40;;
66546;SDS011;53400;50.364;14.874;2024-03-17T07:56:13;13.38;;;6.60;;
66546;SDS011;53400;50.364;14.874;2024-03-17T07:58:40;12.38;;;6.50;;
66546;SDS011;53400;50.364;14.874;2024-03-17T08:01:07;11.68;;;5.60;;
66546;SDS011;53400;50.364;14.874;2024-03-17T08:03:37;11.80;;;6.05;;
66546;SDS011;53400;50.364;14.874;2024-03-17T08:06:06;9.80;;;5.53;;
66546;SDS011;53400;50.364;14.874;2024-03-17T08:08:33;10.35;;;5.28;;
66546;SDS011;53400;50.364;14.874;2024-03-17T08:10:59;9.18;;;4.03;;
66546;SDS011;53400;50.364;14.874;2024-03-17T08:13:28;9.15;;;4.00;;
66546;SDS011;53400;50.364;14.874;2024-03-17T08:15:59;12.23;;;4.50;;
66546;SDS011;53400;50.364;14.874;2024-03-17T08:18:29;10.65;;;4.40;;
66546;SDS011;53400;50.364;14.874;2024-03-17T08:20:55;10.40;;;4.43;;
66546;SDS011;53400;50.364;14.874;2024-03-17T08:23:23;8.98;;;4.32;;
66546;SDS011;53400;50.364;14.874;2024-03-17T08:25:52;10.77;;;4.07;;
66546;SDS011;53400;50.364;14.874;2024-03-17T08:28:19;7.97;;;4.22;;
66546;SDS011;53400;50.364;14.874;2024-03-17T08:30:50;11.38;;;4.90;;
66546;SDS011;53400;50.364;14.874;2024-03-17T08:33:16;12.18;;;4.70;;
66546;SDS011;53400;50.364;14.874;2024-03-17T08:35:51;12.10;;;4.15;;
66546;SDS011;53400;50.364;14.874;2024-03-17T08:38:18;7.40;;;3.35;;
66546;SDS011;53400;50.364;14.874;2024-03-17T08:40:47;8.57;;;3.75;;
66546;SDS011;53400;50.364;14.874;2024-03-17T08:43:13;7.13;;;3.65;;
66546;SDS011;53400;50.364;14.874;2024-03-17T08:45:38;8.90;;;3.97;;
66546;SDS011;53400;50.364;14.874;2024-03-17T08:48:04;9.00;;;3.88;;
66546;SDS011;53400;50.364;14.874;2024-03-17T08:50:31;8.57;;;3.38;;
66546;SDS011;53400;50.364;14.874;2024-03-17T08:52:59;8.95;;;3.63;;
66546;SDS011;53400;50.364;14.874;2024-03-17T08:55:26;8.25;;;3.00;;
66546;SDS011;53400;50.364;14.874;2024-03-17T08:57:53;8.82;;;3.30;;
66546;SDS011;53400;50.364;14.874;2024-03-17T09:00:19;10.52;;;3.75;;
66546;SDS011;53400;50.364;14.874;2024-03-17T09:02:44;7.80;;;3.30;;
66546;SDS011;53400;50.364;14.874;2024-03-17T09:05:10;7.40;;;3.53;;
66546;SDS011;53400;50.364;14.874;2024-03-17T09:07:37;8.48;;;3.33;;
66546;SDS011;53400;50.364;14.874;2024-03-17T09:10:04;8.35;;;3.78;;
66546;SDS011;53400;50.364;14.874;2024-03-17T09:12:30;7.50;;;3.25;;
66546;SDS011;53400;50.364;14.874;2024-03-17T09:14:57;8.50;;;3.67;;
66546;SDS011;53400;50.364;14.874;2024-03-17T09:19:49;6.63;;;3.30;;
66546;SDS011;53400;50.364;14.874;2024-03-17T09:22:14;6.82;;;2.75;;
66546;SDS011;53400;50.364;14.874;2024-03-17T09:24:40;9.57;;;3.30;;
66546;SDS011;53400;50.364;14.874;2024-03-17T09:27:06;7.70;;;2.83;;
66546;SDS011;53400;50.364;14.874;2024-03-17T09:29:32;6.28;;;2.72;;
66546;SDS011;53400;50.364;14.874;2024-03-17T09:31:59;8.20;;;2.90;;
66546;SDS011;53400;50.364;14.874;2024-03-17T09:34:25;6.00;;;2.78;;
66546;SDS011;53400;50.364;14.874;2024-03-17T09:36:51;10.90;;;3.33;;
66546;SDS011;53400;50.364;14.874;2024-03-17T09:39:17;10.50;;;3.53;;
66546;SDS011;53400;50.364;14.874;2024-03-17T09:41:44;8.82;;;3.67;;
66546;SDS011;53400;50.364;14.874;2024-03-17T09:44:12;10.68;;;4.00;;
66546;SDS011;53400;50.364;14.874;2024-03-17T09:46:38;7.93;;;3.53;;
66546;SDS011;53400;50.364;14.874;2024-03-17T09:49:07;7.35;;;3.53;;
66546;SDS011;53400;50.364;14.874;2024-03-17T09:51:39;6.68;;;3.25;;
66546;SDS011;53400;50.364;14.874;2024-03-17T09:54:07;8.63;;;3.60;;
66546;SDS011;53400;50.364;14.874;2024-03-17T09:56:42;7.90;;;4.22;;
66546;SDS011;53400;50.364;14.874;2024-03-17T09:59:09;8.57;;;3.80;;
66546;SDS011;53400;50.364;14.874;2024-03-17T10:01:34;11.40;;;4.40;;
66546;SDS011;53400;50.364;14.874;2024-03-17T10:04:00;7.97;;;3.55;;
66546;SDS011;53400;50.364;14.874;2024-03-17T10:06:30;8.10;;;3.78;;
66546;SDS011;53400;50.364;14.874;2024-03-17T10:08:57;9.38;;;3.60;;
66546;SDS011;53400;50.364;14.874;2024-03-17T10:11:32;7.45;;;3.83;;
66546;SDS011;53400;50.364;14.874;2024-03-17T10:13:59;6.50;;;3.27;;
66546;SDS011;53400;50.364;14.874;2024-03-17T10:16:27;5.47;;;2.90;;
66546;SDS011;53400;50.364;14.874;2024-03-17T10:19:05;6.72;;;3.10;;
66546;SDS011;53400;50.364;14.874;2024-03-17T10:21:34;7.05;;;2.80;;
66546;SDS011;53400;50.364;14.874;2024-03-17T10:24:09;6.15;;;2.67;;
66546;SDS011;53400;50.364;14.874;2024-03-17T10:26:36;8.73;;;2.83;;
66546;SDS011;53400;50.364;14.874;2024-03-17T10:29:05;6.10;;;2.55;;
66546;SDS011;53400;50.364;14.874;2024-03-17T10:31:44;5.80;;;3.20;;
66546;SDS011;53400;50.364;14.874;2024-03-17T10:34:11;6.40;;;3.30;;
66546;SDS011;53400;50.364;14.874;2024-03-17T10:36:43;6.45;;;2.72;;
66546;SDS011;53400;50.364;14.874;2024-03-17T10:39:16;5.47;;;2.85;;
66546;SDS011;53400;50.364;14.874;2024-03-17T10:41:54;6.25;;;2.97;;
66546;SDS011;53400;50.364;14.874;2024-03-17T10:44:23;5.60;;;2.70;;
66546;SDS011;53400;50.364;14.874;2024-03-17T10:46:48;6.38;;;3.00;;
66546;SDS011;53400;50.364;14.874;2024-03-17T10:49:19;7.63;;;3.58;;
66546;SDS011;53400;50.364;14.874;2024-03-17T10:51:47;5.80;;;3.10;;
66546;SDS011;53400;50.364;14.874;2024-03-17T10:54:23;7.60;;;2.80;;
66546;SDS011;53400;50.364;14.874;2024-03-17T10:56:54;6.00;;;2.88;;
66546;SDS011;53400;50.364;14.874;2024-03-17T10:59:22;6.15;;;2.60;;
66546;SDS011;53400;50.364;14.874;2024-03-17T11:01:58;6.60;;;2.85;;
66546;SDS011;53400;50.364;14.874;2024-03-17T11:04:28;7.35;;;2.78;;
66546;SDS011;53400;50.364;14.874;2024-03-17T11:06:55;9.20;;;3.30;;
66546;SDS011;53400;50.364;14.874;2024-03-17T11:09:24;6.97;;;3.40;;
66546;SDS011;53400;50.364;14.874;2024-03-17T11:11:49;7.55;;;3.70;;
66546;SDS011;53400;50.364;14.874;2024-03-17T11:14:17;7.53;;;3.40;;
66546;SDS011;53400;50.364;14.874;2024-03-17T11:16:47;7.32;;;3.85;;
66546;SDS011;53400;50.364;14.874;2024-03-17T11:19:14;8.43;;;3.90;;
66546;SDS011;53400;50.364;14.874;2024-03-17T11:21:41;7.93;;;4.07;;
66546;SDS011;53400;50.364;14.874;2024-03-17T11:24:18;6.97;;;4.38;;
66546;SDS011;53400;50.364;14.874;2024-03-17T11:26:44;10.75;;;4.50;;
66546;SDS011;53400;50.364;14.874;2024-03-17T11:29:23;8.98;;;4.40;;
66546;SDS011;53400;50.364;14.874;2024-03-17T11:31:52;8.45;;;4.13;;
66546;SDS011;53400;50.364;14.874;2024-03-17T11:34:30;7.63;;;3.80;;
66546;SDS011;53400;50.364;14.874;2024-03-17T11:36:57;8.45;;;3.72;;
66546;SDS011;53400;50.364;14.874;2024-03-17T11:42:21;6.97;;;3.83;;
66546;SDS011;53400;50.364;14.874;2024-03-17T11:45:04;6.90;;;3.83;;
66546;SDS011;53400;50.364;14.874;2024-03-17T11:47:38;8.55;;;3.53;;
66546;SDS011;53400;50.364;14.874;2024-03-17T11:50:06;7.40;;;3.75;;
66546;SDS011;53400;50.364;14.874;2024-03-17T11:52:35;6.70;;;3.80;;
66546;SDS011;53400;50.364;14.874;2024-03-17T11:55:03;7.50;;;4.25;;
66546;SDS011;53400;50.364;14.874;2024-03-17T11:57:29;8.77;;;5.00;;
66546;SDS011;53400;50.364;14.874;2024-03-17T11:59:56;11.15;;;5.35;;
66546;SDS011;53400;50.364;14.874;2024-03-17T12:02:23;17.25;;;9.48;;
66546;SDS011;53400;50.364;14.874;2024-03-17T12:04:52;19.75;;;9.52;;
66546;SDS011;53400;50.364;14.874;2024-03-17T12:07:19;18.95;;;8.55;;
66546;SDS011;53400;50.364;14.874;2024-03-17T12:09:47;10.23;;;5.15;;
66546;SDS011;53400;50.364;14.874;2024-03-17T12:14:50;11.60;;;5.55;;
66546;SDS011;53400;50.364;14.874;2024-03-17T12:17:19;9.00;;;4.65;;
66546;SDS011;53400;50.364;14.874;2024-03-17T12:19:47;10.25;;;5.22;;
66546;SDS011;53400;50.364;14.874;2024-03-17T12:22:15;10.25;;;4.15;;
66546;SDS011;53400;50.364;14.874;2024-03-17T12:24:43;9.85;;;4.45;;
66546;SDS011;53400;50.364;14.874;2024-03-17T12:27:15;6.82;;;3.83;;
66546;SDS011;53400;50.364;14.874;2024-03-17T12:29:49;8.25;;;4.40;;
66546;SDS011;53400;50.364;14.874;2024-03-17T12:32:16;7.38;;;3.83;;
66546;SDS011;53400;50.364;14.874;2024-03-17T12:34:43;6.82;;;3.80;;
66546;SDS011;53400;50.364;14.874;2024-03-17T12:37:13;7.93;;;4.18;;
66546;SDS011;53400;50.364;14.874;2024-03-17T12:39:42;9.40;;;4.20;;
66546;SDS011;53400;50.364;14.874;2024-03-17T12:44:37;8.70;;;4.38;;
66546;SDS011;53400;50.364;14.874;2024-03-17T12:47:07;8.27;;;4.57;;
66546;SDS011;53400;50.364;14.874;2024-03-17T12:49:43;7.30;;;4.18;;
66546;SDS011;53400;50.364;14.874;2024-03-17T12:52:15;7.40;;;4.15;;
66546;SDS011;53400;50.364;14.874;2024-03-17T12:54:43;6.75;;;4.07;;
66546;SDS011;53400;50.364;14.874;2024-03-17T12:57:15;8.23;;;4.40;;
66546;SDS011;53400;50.364;14.874;2024-03-17T13:00:01;9.57;;;4.70;;
66546;SDS011;53400;50.364;14.874;2024-03-17T13:02:57;8.00;;;4.65;;
66546;SDS011;53400;50.364;14.874;2024-03-17T13:07:49;8.95;;;4.40;;
66546;SDS011;53400;50.364;14.874;2024-03-17T13:10:16;9.50;;;4.40;;
66546;SDS011;53400;50.364;14.874;2024-03-17T13:12:42;8.48;;;4.47;;
66546;SDS011;53400;50.364;14.874;2024-03-17T13:15:13;8.15;;;5.25;;
66546;SDS011;53400;50.364;14.874;2024-03-17T13:17:40;7.22;;;4.60;;
66546;SDS011;53400;50.364;14.874;2024-03-17T13:20:07;7.45;;;4.35;;
66546;SDS011;53400;50.364;14.874;2024-03-17T13:22:37;9.25;;;4.68;;
66546;SDS011;53400;50.364;14.874;2024-03-17T13:25:07;8.57;;;5.07;;
66546;SDS011;53400;50.364;14.874;2024-03-17T13:27:35;7.80;;;5.20;;
66546;SDS011;53400;50.364;14.874;2024-03-17T13:30:00;9.48;;;5.07;;
66546;SDS011;53400;50.364;14.874;2024-03-17T13:32:27;8.90;;;4.68;;
66546;SDS011;53400;50.364;14.874;2024-03-17T13:34:53;10.48;;;5.75;;
66546;SDS011;53400;50.364;14.874;2024-03-17T13:37:19;9.20;;;5.63;;
66546;SDS011;53400;50.364;14.874;2024-03-17T13:39:47;7.15;;;4.45;;
66546;SDS011;53400;50.364;14.874;2024-03-17T13:42:12;8.63;;;5.32;;
66546;SDS011;53400;50.364;14.874;2024-03-17T13:44:38;8.73;;;5.05;;
66546;SDS011;53400;50.364;14.874;2024-03-17T13:47:04;8.05;;;5.47;;
66546;SDS011;53400;50.364;14.874;2024-03-17T13:49:32;8.07;;;5.43;;
66546;SDS011;53400;50.364;14.874;2024-03-17T13:51:58;8.55;;;5.30;;
66546;SDS011;53400;50.364;14.874;2024-03-17T13:54:25;8.07;;;5.78;;
66546;SDS011;53400;50.364;14.874;2024-03-17T13:56:51;8.32;;;5.72;;
66546;SDS011;53400;50.364;14.874;2024-03-17T13:59:17;9.68;;;6.70;;
66546;SDS011;53400;50.364;14.874;2024-03-17T14:01:43;9.15;;;6.03;;
66546;SDS011;53400;50.364;14.874;2024-03-17T14:04:11;8.27;;;6.68;;
66546;SDS011;53400;50.364;14.874;2024-03-17T14:06:40;10.75;;;7.60;;
66546;SDS011;53400;50.364;14.874;2024-03-17T14:09:07;8.82;;;6.55;;
66546;SDS011;53400;50.364;14.874;2024-03-17T14:11:36;11.45;;;6.80;;
66546;SDS011;53400;50.364;14.874;2024-03-17T14:14:02;9.80;;;7.07;;
66546;SDS011;53400;50.364;14.874;2024-03-17T14:16:29;11.15;;;6.57;;
66546;SDS011;53400;50.364;14.874;2024-03-17T14:18:57;10.23;;;6.38;;
66546;SDS011;53400;50.364;14.874;2024-03-17T14:21:23;8.02;;;5.85;;
66546;SDS011;53400;50.364;14.874;2024-03-17T14:23:50;10.02;;;6.40;;
66546;SDS011;53400;50.364;14.874;2024-03-17T14:26:16;9.68;;;6.43;;
66546;SDS011;53400;50.364;14.874;2024-03-17T14:28:42;8.60;;;5.40;;
66546;SDS011;53400;50.364;14.874;2024-03-17T14:31:07;10.07;;;5.70;;
66546;SDS011;53400;50.364;14.874;2024-03-17T14:33:33;8.38;;;5.72;;
66546;SDS011;53400;50.364;14.874;2024-03-17T14:35:59;7.88;;;5.55;;
66546;SDS011;53400;50.364;14.874;2024-03-17T14:38:25;8.00;;;5.25;;
66546;SDS011;53400;50.364;14.874;2024-03-17T14:40:53;8.35;;;5.78;;
66546;SDS011;53400;50.364;14.874;2024-03-17T14:43:21;9.23;;;5.35;;
66546;SDS011;53400;50.364;14.874;2024-03-17T14:45:47;8.48;;;5.20;;
66546;SDS011;53400;50.364;14.874;2024-03-17T14:48:14;9.52;;;5.50;;